This is the latest recevied weather packets stored in our database for station/object W6SNO-1. If no packets are shown the sender has not sent any weather packets the latest 10 day(s).
| Time | Temp. | Humidity | Pressure | Rain* | Wind** | Luminosity | Snow |
|---|---|---|---|---|---|---|---|
| 1777680082 | 22.78° C | 58% | 1012.3 hPa | 0 mm | - | 367 W/m² | - |
| 1777679777 | 22.78° C | 58% | 1012.2 hPa | 0 mm | - | 367 W/m² | - |
| 1777679473 | 23.33° C | 59% | 1012.3 hPa | 0 mm | - | 385 W/m² | - |
| 1777679169 | 22.78° C | 59% | 1012.4 hPa | 0 mm | - | 418 W/m² | - |
| 1777678867 | 23.89° C | 56% | 1012.5 hPa | 0 mm | - | 410 W/m² | - |
| 1777678565 | 24.44° C | 56% | 1012.5 hPa | 0 mm | - | 393 W/m² | - |
| 1777677051 | 22.78° C | 59% | 1012.6 hPa | 0 mm | - | 525 W/m² | - |
| 1777676749 | 22.78° C | 59% | 1012.6 hPa | 0 mm | - | 525 W/m² | - |
| 1777676447 | 22.78° C | 60% | 1012.9 hPa | 0 mm | - | 549 W/m² | - |
| 1777676144 | 22.22° C | 59% | 1013 hPa | 0 mm | - | 558 W/m² | - |
| 1777675840 | 22.22° C | 58% | 1013 hPa | 0 mm | - | 581 W/m² | - |
| 1777675538 | 22.78° C | 58% | 1013.1 hPa | 0 mm | - | 409 W/m² | - |
| 1777675235 | 22.78° C | 58% | 1013.1 hPa | 0 mm | - | 609 W/m² | - |
| 1777674931 | 22.78° C | 58% | 1013.5 hPa | 0 mm | - | 609 W/m² | - |
| 1777674628 | 22.78° C | 58% | 1013.5 hPa | 0 mm | - | 605 W/m² | - |
| 1777674325 | 22.22° C | 59% | 1013.7 hPa | 0 mm | - | 611 W/m² | - |
| 1777674021 | 22.22° C | 58% | 1013.6 hPa | 0 mm | - | 608 W/m² | - |
| 1777673717 | 22.22° C | 59% | 1013.7 hPa | 0 mm | - | 623 W/m² | - |
| 1777673415 | 23.33° C | 57% | 1014.1 hPa | 0 mm | - | 660 W/m² | - |
| 1777673112 | 23.33° C | 57% | 1013.6 hPa | 0 mm | - | 660 W/m² | - |
| 1777672809 | 22.78° C | 58% | 1013.8 hPa | 0 mm | - | 648 W/m² | - |
| 1777672505 | 22.22° C | 59% | 1013.9 hPa | 0 mm | - | 626 W/m² | - |
| 1777672201 | 22.22° C | 59% | 1013.9 hPa | 0 mm | - | 698 W/m² | - |
| 1777671896 | 22.22° C | 59% | 1013.9 hPa | 0 mm | - | 698 W/m² | - |
| 1777671592 | 22.78° C | 56% | 1014.1 hPa | 0 mm | - | 657 W/m² | - |
* Rain latest hour (hover to see other rain measurements)
** Current wind speed in m/s (hover to see current wind gust speed)